Time;durP1;ratioP1;P1;durP2;ratioP2;P2;SDS_P1;SDS_P2;PMS_P1;PMS_P2;Temp;Humidity;BMP_temperature;BMP_pressure;BME280_temperature;BME280_humidity;BME280_pressure;Samples;Min_cycle;Max_cycle;Signal;HPM_P1;HPM_P2
2023/06/26 00:00:04;;;;;;;6.63;5.25;;;;;;;26.93;43.45;99564.94;4954665;28;20059;-81
2023/06/26 00:02:32;;;;;;;5.50;4.85;;;;;;;26.93;43.09;99572.19;4956586;28;20406;-81
2023/06/26 00:05:02;;;;;;;5.22;4.72;;;;;;;26.91;43.65;99566.97;4971850;28;20073;-81
2023/06/26 00:07:29;;;;;;;6.65;4.65;;;;;;;26.90;43.26;99569.88;4962698;28;20079;-81
2023/06/26 00:09:58;;;;;;;5.15;4.57;;;;;;;26.87;43.24;99562.19;4954000;28;20055;-81
2023/06/26 00:12:25;;;;;;;4.75;4.32;;;;;;;26.85;43.43;99564.25;4937019;28;20146;-81
2023/06/26 00:14:51;;;;;;;6.43;4.85;;;;;;;26.83;43.51;99558.22;4954164;28;20075;-81
2023/06/26 00:17:18;;;;;;;7.65;4.93;;;;;;;26.82;43.56;99559.25;4960193;28;20047;-80
2023/06/26 00:19:45;;;;;;;5.68;5.10;;;;;;;26.78;43.67;99550.72;4973419;28;20062;-80
2023/06/26 00:22:11;;;;;;;4.80;4.15;;;;;;;26.75;44.36;99548.41;4973275;28;20086;-80
2023/06/26 00:24:38;;;;;;;5.47;4.97;;;;;;;26.73;44.04;99551.31;4972927;28;20055;-80
2023/06/26 00:27:05;;;;;;;5.25;4.75;;;;;;;26.70;43.95;99548.16;4955019;28;20059;-80
2023/06/26 00:29:31;;;;;;;5.45;4.90;;;;;;;26.67;43.82;99550.25;4953859;28;20065;-81
2023/06/26 00:31:58;;;;;;;5.55;4.80;;;;;;;26.64;44.16;99547.09;4953837;28;20059;-80
2023/06/26 00:34:24;;;;;;;10.38;5.10;;;;;;;26.60;44.52;99543.97;4953554;28;20561;-80
2023/06/26 00:36:51;;;;;;;5.10;4.60;;;;;;;26.60;44.43;99537.72;4966411;28;20050;-80
2023/06/26 00:39:17;;;;;;;6.47;5.72;;;;;;;26.58;44.67;99537.94;4971598;28;20418;-81
2023/06/26 00:41:44;;;;;;;6.05;5.05;;;;;;;26.56;44.30;99537.28;4972743;28;20497;-80
2023/06/26 00:44:10;;;;;;;5.65;5.05;;;;;;;26.53;44.52;99526.88;4972997;28;20113;-80
2023/06/26 00:46:37;;;;;;;5.32;4.82;;;;;;;26.51;44.18;99537.06;4963258;28;20189;-80
2023/06/26 00:49:03;;;;;;;5.35;4.85;;;;;;;26.49;44.53;99531.88;4952287;28;20063;-80
2023/06/26 00:51:30;;;;;;;5.20;4.70;;;;;;;26.49;44.65;99533.72;4953256;28;20134;-80
2023/06/26 00:53:57;;;;;;;5.75;5.07;;;;;;;26.45;44.53;99530.59;4953321;28;20087;-80
2023/06/26 00:56:24;;;;;;;6.35;5.00;;;;;;;26.43;44.49;99529.13;4957514;28;20055;-80
2023/06/26 00:58:50;;;;;;;5.63;5.03;;;;;;;26.40;44.89;99520.38;4972472;28;20063;-80
2023/06/26 01:01:17;;;;;;;5.75;5.15;;;;;;;26.38;44.84;99522.44;4970573;28;20057;-80
2023/06/26 01:03:45;;;;;;;8.68;4.82;;;;;;;26.37;44.87;99523.50;4971295;28;21224;-80
2023/06/26 01:06:14;;;;;;;7.60;5.05;;;;;;;26.34;45.29;99518.47;4957105;28;20059;-80
2023/06/26 01:08:42;;;;;;;5.95;5.35;;;;;;;26.33;45.01;99514.13;4952784;28;20142;-80
2023/06/26 01:11:09;;;;;;;5.60;5.10;;;;;;;26.31;45.30;99502.69;4962043;28;20547;-80
2023/06/26 01:13:36;;;;;;;6.18;5.00;;;;;;;26.29;45.14;99502.06;4972485;28;20114;-80
2023/06/26 01:16:05;;;;;;;7.63;5.18;;;;;;;26.26;45.36;99499.75;4954249;28;20474;-80
2023/06/26 01:18:32;;;;;;;5.25;4.70;;;;;;;26.24;45.53;99499.09;4954891;28;20081;-80
2023/06/26 01:21:01;;;;;;;6.25;4.95;;;;;;;26.21;45.71;99494.94;4965387;28;20134;-80
2023/06/26 01:23:38;;;;;;;5.93;4.80;;;;;;;26.15;46.09;99485.75;4961676;28;20050;-80
2023/06/26 01:26:08;;;;;;;7.57;5.90;;;;;;;26.15;45.76;99488.44;4939439;28;20091;-80
2023/06/26 01:28:37;;;;;;;5.75;5.20;;;;;;;26.13;45.89;99487.78;4951258;28;20441;-80
2023/06/26 01:31:05;;;;;;;5.75;5.15;;;;;;;26.11;45.88;99483.63;4956841;28;20047;-80
2023/06/26 01:33:32;;;;;;;7.60;5.30;;;;;;;26.08;45.83;99473.22;4969943;28;20059;-80
2023/06/26 01:35:59;;;;;;;5.35;4.80;;;;;;;26.06;45.96;99475.31;4971818;28;20058;-80
2023/06/26 01:38:25;;;;;;;6.20;5.60;;;;;;;26.02;46.11;99464.09;4972009;28;20485;-80
2023/06/26 01:40:53;;;;;;;5.82;5.25;;;;;;;25.98;46.21;99469.00;4971470;28;20116;-80
2023/06/26 01:43:29;;;;;;;5.70;4.90;;;;;;;25.92;45.84;99467.13;4970651;28;20104;-80
2023/06/26 01:46:02;;;;;;;5.75;5.15;;;;;;;25.89;46.24;99462.09;4971147;28;20145;-80
2023/06/26 01:48:38;;;;;;;5.95;5.35;;;;;;;25.86;46.10;99466.03;4971826;28;20059;-80
2023/06/26 01:51:07;;;;;;;7.05;5.13;;;;;;;25.83;46.46;99452.94;4971697;28;20078;-80
2023/06/26 01:53:38;;;;;;;5.93;5.00;;;;;;;25.79;46.09;99465.13;4952532;28;20407;-80
2023/06/26 01:56:13;;;;;;;5.68;5.10;;;;;;;25.75;46.14;99456.59;4952091;28;20133;-80
2023/06/26 01:58:46;;;;;;;5.93;5.32;;;;;;;25.71;46.14;99455.34;4952238;28;20069;-80
2023/06/26 02:01:12;;;;;;;7.82;5.95;;;;;;;25.71;45.68;99455.34;4956948;28;20050;-81
2023/06/26 02:03:39;;;;;;;6.00;4.93;;;;;;;25.70;45.64;99450.13;4954269;28;20054;-81
2023/06/26 02:06:06;;;;;;;6.18;5.05;;;;;;;25.68;45.58;99449.50;4971267;28;20097;-80
2023/06/26 02:08:32;;;;;;;5.55;5.05;;;;;;;25.66;45.76;99446.16;4954103;28;20469;-80
2023/06/26 02:10:59;;;;;;;8.93;5.32;;;;;;;25.66;45.32;99443.47;4970570;28;20173;-80
2023/06/26 02:13:25;;;;;;;6.28;5.53;;;;;;;25.65;45.06;99442.66;4950999;28;20059;-80
2023/06/26 02:15:52;;;;;;;7.85;5.20;;;;;;;25.67;45.05;99437.06;4951946;28;20059;-80
2023/06/26 02:18:21;;;;;;;5.60;5.05;;;;;;;25.68;45.21;99438.72;4951836;28;20063;-80
2023/06/26 02:20:48;;;;;;;6.32;5.32;;;;;;;25.70;45.16;99436.66;4951113;28;20101;-80
2023/06/26 02:23:14;;;;;;;6.32;5.50;;;;;;;25.69;45.13;99437.69;4967496;28;20070;-80
2023/06/26 02:25:41;;;;;;;5.63;5.13;;;;;;;25.71;45.36;99432.94;4970914;28;20138;-80
2023/06/26 02:28:07;;;;;;;6.30;5.70;;;;;;;25.71;45.25;99431.06;4974793;28;20509;-80
2023/06/26 02:30:34;;;;;;;6.88;5.63;;;;;;;25.72;45.02;99435.44;4975092;28;20505;-80
2023/06/26 02:33:00;;;;;;;6.00;5.28;;;;;;;25.73;44.68;99438.97;4963817;28;20055;-80
2023/06/26 02:35:27;;;;;;;6.00;5.07;;;;;;;25.71;44.90;99439.16;4954381;28;20062;-80
2023/06/26 02:37:53;;;;;;;6.53;5.93;;;;;;;25.71;45.06;99441.03;4956192;28;20142;-80
2023/06/26 02:40:20;;;;;;;6.25;5.25;;;;;;;25.70;44.73;99431.25;4955694;28;20134;-80
2023/06/26 02:42:46;;;;;;;7.55;5.68;;;;;;;25.70;44.83;99439.34;4962545;28;20051;-80
2023/06/26 02:45:13;;;;;;;6.30;5.47;;;;;;;25.70;44.60;99428.56;4964060;28;20059;-80
2023/06/26 02:47:39;;;;;;;6.25;5.45;;;;;;;25.68;44.95;99431.44;4968827;28;20500;-80
2023/06/26 02:50:07;;;;;;;6.57;5.97;;;;;;;25.68;45.07;99438.72;4974737;28;20536;-80
2023/06/26 02:52:33;;;;;;;5.90;5.20;;;;;;;25.66;44.49;99425.44;4972156;28;20091;-80
2023/06/26 02:55:00;;;;;;;6.47;5.70;;;;;;;25.64;44.74;99435.56;4955320;28;20595;-80
2023/06/26 02:57:26;;;;;;;9.15;6.03;;;;;;;25.63;44.83;99433.91;4955623;28;20469;-80
2023/06/26 02:59:53;;;;;;;6.95;5.70;;;;;;;25.61;44.57;99427.88;4955514;28;20062;-80
2023/06/26 03:02:19;;;;;;;6.22;5.63;;;;;;;25.59;44.83;99428.09;4955237;28;20082;-80
2023/06/26 03:04:46;;;;;;;6.20;5.60;;;;;;;25.57;44.52;99426.59;4971015;28;20124;-80
2023/06/26 03:07:12;;;;;;;9.90;5.32;;;;;;;25.56;44.54;99430.31;4974254;28;20512;-80
2023/06/26 03:09:39;;;;;;;7.28;5.88;;;;;;;25.54;44.53;99429.66;4974704;28;20059;-80
2023/06/26 03:12:06;;;;;;;6.25;5.60;;;;;;;25.50;44.57;99431.91;4974489;28;20174;-80
2023/06/26 03:14:33;;;;;;;7.13;5.53;;;;;;;25.46;44.67;99438.72;4945153;28;20538;-80
2023/06/26 03:17:03;;;;;;;7.63;5.53;;;;;;;25.43;44.42;99429.16;4954848;28;20478;-80
2023/06/26 03:19:30;;;;;;;11.23;5.97;;;;;;;25.40;44.72;99434.09;4955051;28;20055;-80
2023/06/26 03:21:56;;;;;;;8.13;5.80;;;;;;;25.38;45.08;99443.19;4954909;28;20548;-80
2023/06/26 03:24:23;;;;;;;7.97;5.35;;;;;;;25.36;44.60;99428.25;4962709;28;20090;-80
2023/06/26 03:26:49;;;;;;;7.30;5.55;;;;;;;25.34;44.90;99433.84;4973904;28;20145;-79
2023/06/26 03:29:16;;;;;;;6.38;5.53;;;;;;;25.33;44.76;99434.03;4974170;28;20086;-80
2023/06/26 03:31:42;;;;;;;6.70;5.45;;;;;;;25.31;44.93;99430.69;4957188;28;20139;-80
2023/06/26 03:34:09;;;;;;;7.05;5.78;;;;;;;25.30;44.96;99429.03;4953360;28;20086;-80
2023/06/26 03:36:35;;;;;;;5.90;5.30;;;;;;;25.29;44.68;99433.59;4954976;28;20066;-80
2023/06/26 03:39:03;;;;;;;6.55;5.85;;;;;;;25.28;44.83;99421.16;4954222;28;20055;-80
2023/06/26 03:41:30;;;;;;;7.38;5.70;;;;;;;25.27;44.94;99414.09;4953722;28;20075;-80
2023/06/26 03:43:56;;;;;;;7.43;5.95;;;;;;;25.26;44.72;99414.28;4937846;28;20264;-80
2023/06/26 03:49:11;;;;;;;6.43;5.80;;;;;;;25.25;45.11;99418.81;4992154;28;20141;-78
2023/06/26 03:51:37;;;;;;;7.28;6.00;;;;;;;25.23;45.04;99418.19;4993188;28;20508;-78
2023/06/26 03:54:04;;;;;;;7.50;5.93;;;;;;;25.23;45.19;99423.59;4993325;28;20077;-77
2023/06/26 03:56:30;;;;;;;6.35;5.75;;;;;;;25.21;45.11;99415.69;4976518;28;20077;-78
2023/06/26 03:58:56;;;;;;;6.88;6.05;;;;;;;25.21;45.14;99422.94;4974324;28;20506;-78
2023/06/26 04:01:23;;;;;;;6.75;6.15;;;;;;;25.20;45.35;99426.66;4973776;28;20061;-78
2023/06/26 04:03:49;;;;;;;8.63;6.35;;;;;;;25.18;45.46;99431.38;4973695;28;20311;-78
2023/06/26 04:06:16;;;;;;;6.40;5.80;;;;;;;25.17;45.23;99440.50;4985185;28;20532;-78
2023/06/26 04:08:42;;;;;;;7.80;5.95;;;;;;;25.15;45.79;99429.09;4989088;28;20425;-78
2023/06/26 04:11:09;;;;;;;8.40;6.55;;;;;;;25.13;45.61;99423.06;4992396;28;20456;-78
2023/06/26 04:13:35;;;;;;;9.18;5.97;;;;;;;25.09;45.55;99426.13;4993010;28;20054;-78
2023/06/26 04:16:06;;;;;;;9.27;6.65;;;;;;;25.07;45.52;99430.03;4992449;28;20058;-78
2023/06/26 04:18:32;;;;;;;7.50;6.22;;;;;;;25.06;45.51;99431.91;4992643;28;20059;-78
2023/06/26 04:21:13;;;;;;;9.05;6.93;;;;;;;24.98;46.46;99435.53;4992983;28;20047;-78
2023/06/26 04:23:40;;;;;;;7.07;6.35;;;;;;;25.00;45.83;99429.97;4992746;28;20060;-78
2023/06/26 04:26:08;;;;;;;6.95;6.25;;;;;;;24.98;45.94;99438.22;4992334;28;20058;-78
2023/06/26 04:28:35;;;;;;;8.48;6.53;;;;;;;24.96;46.08;99439.44;4992545;28;20112;-78
2023/06/26 04:31:03;;;;;;;7.68;6.30;;;;;;;24.95;46.17;99443.16;4991489;28;20488;-78
2023/06/26 04:33:30;;;;;;;6.70;6.10;;;;;;;24.93;46.09;99434.47;4991506;28;20113;-77
2023/06/26 04:35:56;;;;;;;7.80;6.80;;;;;;;24.91;46.18;99442.72;4987370;28;20062;-78
2023/06/26 04:38:23;;;;;;;13.30;7.32;;;;;;;24.91;46.47;99445.41;4983830;28;20062;-78
2023/06/26 04:40:49;;;;;;;8.70;7.35;;;;;;;24.91;46.38;99445.41;4990776;28;20072;-78
2023/06/26 04:43:16;;;;;;;8.05;6.95;;;;;;;24.91;46.34;99447.25;4990053;28;20140;-78
2023/06/26 04:45:43;;;;;;;7.80;7.00;;;;;;;24.90;46.80;99441.06;4990959;28;20145;-78
2023/06/26 04:48:09;;;;;;;12.27;7.65;;;;;;;24.90;46.66;99445.59;4990183;28;20058;-78
2023/06/26 04:50:35;;;;;;;8.68;6.68;;;;;;;24.89;47.05;99450.13;4990179;28;20060;-78
2023/06/26 04:53:02;;;;;;;10.45;7.05;;;;;;;24.89;47.07;99449.31;4991119;28;20116;-78
2023/06/26 04:55:30;;;;;;;8.35;7.10;;;;;;;24.89;46.99;99452.00;4991157;28;20060;-78
2023/06/26 04:57:56;;;;;;;8.85;7.30;;;;;;;24.89;47.31;99443.94;4988961;28;20069;-78
2023/06/26 05:00:24;;;;;;;9.57;7.55;;;;;;;24.90;47.07;99449.13;4990371;28;20062;-78
2023/06/26 05:03:00;;;;;;;9.25;8.18;;;;;;;24.92;47.05;99446.22;4991341;28;20057;-78
2023/06/26 05:05:28;;;;;;;11.13;6.88;;;;;;;24.93;47.45;99447.91;4990680;28;20472;-78
2023/06/26 05:07:55;;;;;;;8.52;7.43;;;;;;;24.94;47.34;99452.28;4990774;28;20499;-78
2023/06/26 05:10:22;;;;;;;9.35;7.18;;;;;;;24.95;47.54;99443.16;4973081;28;20581;-78
2023/06/26 05:12:49;;;;;;;10.38;7.72;;;;;;;24.96;47.08;99445.69;4973038;28;20434;-78
2023/06/26 05:15:15;;;;;;;11.70;7.63;;;;;;;24.97;47.59;99447.34;4990397;28;20531;-78
2023/06/26 05:17:41;;;;;;;10.43;7.32;;;;;;;25.00;47.87;99448.81;4990520;28;20144;-78
2023/06/26 05:20:09;;;;;;;9.25;8.15;;;;;;;25.02;47.58;99449.47;4990347;28;20085;-78
2023/06/26 05:22:38;;;;;;;11.13;8.20;;;;;;;25.03;47.95;99443.06;4971034;28;20046;-78
2023/06/26 05:25:08;;;;;;;10.00;8.75;;;;;;;25.04;47.87;99442.03;4970906;28;20481;-78
2023/06/26 05:27:39;;;;;;;10.02;7.90;;;;;;;25.06;47.91;99437.28;4954082;28;20425;-78
2023/06/26 05:30:07;;;;;;;10.20;7.85;;;;;;;25.09;47.89;99430.69;4970978;28;20047;-79
2023/06/26 05:32:35;;;;;;;10.80;8.65;;;;;;;25.10;48.18;99430.50;4969698;28;20053;-78
2023/06/26 05:35:03;;;;;;;9.77;8.77;;;;;;;25.15;47.88;99429.09;4972541;28;20058;-78
2023/06/26 05:37:31;;;;;;;10.23;8.70;;;;;;;25.15;48.39;99427.22;4990457;28;20058;-78
2023/06/26 05:39:57;;;;;;;10.35;8.63;;;;;;;25.17;48.25;99432.41;4973837;28;20058;-78
2023/06/26 05:42:24;;;;;;;10.20;8.00;;;;;;;25.20;48.52;99434.75;4991034;28;20059;-80
2023/06/26 05:44:50;;;;;;;11.00;8.73;;;;;;;25.23;48.18;99437.06;4991255;28;20054;-80
2023/06/26 05:47:17;;;;;;;11.70;8.95;;;;;;;25.25;48.32;99451.16;4991014;28;20054;-80
2023/06/26 05:49:43;;;;;;;10.82;9.57;;;;;;;25.28;48.13;99441.84;4990437;28;20176;-79
2023/06/26 05:52:11;;;;;;;10.88;8.93;;;;;;;25.29;48.35;99446.19;4990067;28;20425;-80
2023/06/26 05:54:37;;;;;;;12.50;9.07;;;;;;;25.30;48.67;99453.28;4988604;28;20055;-80
2023/06/26 05:57:04;;;;;;;9.90;8.90;;;;;;;25.30;48.47;99453.28;4988500;28;20137;-78
2023/06/26 05:59:32;;;;;;;9.55;8.52;;;;;;;25.29;48.61;99460.53;4988829;28;20054;-79
2023/06/26 06:01:58;;;;;;;11.90;9.95;;;;;;;25.28;48.94;99466.09;4988128;28;20057;-79
2023/06/26 06:04:25;;;;;;;9.85;8.85;;;;;;;25.27;48.64;99467.97;4988738;28;20058;-79
2023/06/26 06:06:51;;;;;;;10.23;8.90;;;;;;;25.26;48.99;99466.28;4988208;28;20058;-80
2023/06/26 06:09:18;;;;;;;9.68;8.35;;;;;;;25.27;49.01;99464.44;4989758;28;20058;-79
2023/06/26 06:11:45;;;;;;;10.60;9.45;;;;;;;25.26;49.51;99468.97;4990403;28;20062;-79
2023/06/26 06:14:11;;;;;;;10.20;8.60;;;;;;;25.26;49.36;99470.84;4989947;28;20090;-79
2023/06/26 06:16:37;;;;;;;12.55;9.07;;;;;;;25.27;49.87;99469.81;4990073;28;20054;-79
2023/06/26 06:19:06;;;;;;;10.35;8.30;;;;;;;25.29;49.57;99476.69;4990172;28;20054;-79
2023/06/26 06:21:33;;;;;;;9.43;8.02;;;;;;;25.31;49.84;99484.56;4990044;28;20057;-79
2023/06/26 06:24:01;;;;;;;12.70;8.60;;;;;;;25.33;49.58;99486.06;4972697;28;20062;-79
2023/06/26 06:26:27;;;;;;;9.85;8.13;;;;;;;25.36;49.94;99487.53;4972430;28;20065;-79
2023/06/26 06:28:53;;;;;;;11.32;8.73;;;;;;;25.40;49.85;99485.28;4972591;28;20050;-79
2023/06/26 06:31:20;;;;;;;11.35;7.65;;;;;;;25.43;49.90;99488.44;4989924;28;20051;-79
2023/06/26 06:33:46;;;;;;;11.10;7.97;;;;;;;25.47;49.99;99494.25;4989772;28;20070;-79
2023/06/26 06:36:13;;;;;;;11.95;7.93;;;;;;;25.54;50.14;99503.25;4989334;28;20061;-79
2023/06/26 06:38:43;;;;;;;9.05;7.88;;;;;;;25.59;50.34;99500.00;4972553;28;20054;-79
2023/06/26 06:41:10;;;;;;;8.90;7.38;;;;;;;25.65;50.34;99496.56;4990100;28;20058;-80
2023/06/26 06:43:36;;;;;;;7.90;7.10;;;;;;;25.70;50.07;99510.28;4989532;28;20555;-79
2023/06/26 06:46:03;;;;;;;14.48;8.20;;;;;;;25.75;50.08;99506.97;4989524;28;20056;-79
2023/06/26 06:48:31;;;;;;;9.82;7.03;;;;;;;25.78;50.23;99514.69;4989212;28;20050;-79
2023/06/26 06:50:58;;;;;;;10.15;7.05;;;;;;;25.82;50.03;99512.47;4990286;28;20504;-79
2023/06/26 06:53:24;;;;;;;10.77;7.40;;;;;;;25.86;50.59;99522.66;4971880;28;20051;-79
2023/06/26 06:55:50;;;;;;;8.70;7.18;;;;;;;25.93;50.40;99528.09;4989397;28;20050;-79
2023/06/26 06:58:19;;;;;;;9.75;7.97;;;;;;;26.00;50.44;99525.47;4989456;28;20054;-79
2023/06/26 07:00:45;;;;;;;7.85;7.00;;;;;;;26.07;50.38;99526.34;4989720;28;20050;-79
2023/06/26 07:03:12;;;;;;;10.07;7.78;;;;;;;26.15;49.85;99537.00;4972319;28;20058;-79
2023/06/26 07:05:38;;;;;;;10.65;6.97;;;;;;;26.20;50.00;99546.38;4989187;28;20066;-80
2023/06/26 07:08:05;;;;;;;27.45;7.95;;;;;;;26.21;49.59;99564.22;4989612;28;20497;-79
2023/06/26 07:10:31;;;;;;;18.20;8.10;;;;;;;26.18;50.05;99567.31;4989373;28;20339;-80
2023/06/26 07:12:58;;;;;;;12.27;6.65;;;;;;;26.07;49.91;99572.19;4989166;28;20094;-79
2023/06/26 07:15:24;;;;;;;9.18;7.15;;;;;;;25.92;50.22;99584.91;4992523;28;20058;-79
2023/06/26 07:17:52;;;;;;;8.15;6.18;;;;;;;25.70;50.32;99587.59;4993127;28;20066;-79
2023/06/26 07:20:18;;;;;;;12.50;6.40;;;;;;;25.49;51.05;99594.63;4993395;28;20480;-80
2023/06/26 07:22:45;;;;;;;10.43;6.85;;;;;;;25.28;51.75;99598.09;4993613;28;20051;-79
2023/06/26 07:25:12;;;;;;;11.70;6.55;;;;;;;25.11;52.21;99604.53;4992571;28;20047;-79
2023/06/26 07:27:39;;;;;;;9.52;6.30;;;;;;;24.97;53.08;99602.69;4993053;28;20066;-79
2023/06/26 07:30:10;;;;;;;8.57;6.32;;;;;;;24.87;53.25;99607.50;4992971;28;20054;-79
2023/06/26 07:32:37;;;;;;;11.60;6.55;;;;;;;24.77;53.62;99605.88;4975592;28;20062;-79
2023/06/26 07:35:04;;;;;;;9.07;6.15;;;;;;;24.70;53.88;99613.00;4992792;28;20069;-79
2023/06/26 07:37:31;;;;;;;11.52;6.25;;;;;;;24.67;53.61;99608.84;4992779;28;20062;-79
2023/06/26 07:39:57;;;;;;;8.13;6.13;;;;;;;24.63;53.76;99614.78;4992829;28;20456;-79
2023/06/26 07:42:24;;;;;;;9.43;5.95;;;;;;;24.62;54.18;99629.28;4992753;28;20077;-79
2023/06/26 07:44:50;;;;;;;11.50;6.93;;;;;;;24.62;53.99;99616.63;4975243;28;20061;-79
2023/06/26 07:47:16;;;;;;;9.18;6.53;;;;;;;24.67;54.33;99624.16;4991871;28;20066;-79
2023/06/26 07:49:43;;;;;;;10.02;6.47;;;;;;;24.70;54.45;99608.47;4992862;28;20058;-79
2023/06/26 07:52:14;;;;;;;10.50;6.00;;;;;;;24.76;54.08;99601.53;4992665;28;20425;-79
2023/06/26 07:54:41;;;;;;;11.20;6.60;;;;;;;24.81;53.91;99617.09;4992665;28;20109;-79
2023/06/26 07:57:08;;;;;;;12.18;6.38;;;;;;;24.85;54.20;99610.38;4991821;28;20669;-79
2023/06/26 07:59:35;;;;;;;11.95;5.97;;;;;;;24.88;54.29;99609.16;4992183;28;20113;-79
2023/06/26 08:02:02;;;;;;;9.15;5.68;;;;;;;24.93;54.47;99609.47;4992654;28;20050;-79
2023/06/26 08:04:33;;;;;;;9.50;5.80;;;;;;;24.99;54.05;99608.69;4992352;28;20420;-79
2023/06/26 08:07:01;;;;;;;7.95;5.60;;;;;;;25.04;54.25;99614.34;4991816;28;20058;-79
2023/06/26 08:09:29;;;;;;;8.15;5.40;;;;;;;25.09;54.52;99611.94;4992310;28;20132;-79
2023/06/26 08:11:56;;;;;;;10.27;5.95;;;;;;;25.16;54.43;99605.81;4992070;28;20057;-79
2023/06/26 08:14:23;;;;;;;7.63;5.47;;;;;;;25.23;54.91;99607.56;4992293;28;20058;-79
2023/06/26 08:16:50;;;;;;;8.85;5.63;;;;;;;25.30;54.25;99606.84;4991508;28;20065;-79
2023/06/26 08:19:17;;;;;;;13.40;6.13;;;;;;;25.38;54.14;99612.13;4991706;28;20420;-79
2023/06/26 08:21:45;;;;;;;10.07;6.30;;;;;;;25.46;54.27;99620.06;4991646;28;20062;-79
2023/06/26 08:24:13;;;;;;;10.48;5.78;;;;;;;25.54;54.25;99618.28;4991762;28;20058;-79
2023/06/26 08:26:39;;;;;;;9.85;6.10;;;;;;;25.64;54.11;99624.22;4991231;28;20054;-79
2023/06/26 08:29:09;;;;;;;9.38;5.78;;;;;;;25.72;53.91;99632.22;4992063;28;21089;-79
2023/06/26 08:31:39;;;;;;;10.77;6.20;;;;;;;25.83;53.23;99640.84;4992006;28;20065;-79
2023/06/26 08:34:07;;;;;;;10.75;6.38;;;;;;;25.91;53.27;99637.19;4974814;28;20293;-79
2023/06/26 08:36:34;;;;;;;9.38;6.00;;;;;;;25.99;53.08;99637.06;4991614;28;20469;-79
2023/06/26 08:39:00;;;;;;;11.15;6.60;;;;;;;26.08;53.41;99649.38;4991455;28;20568;-79
2023/06/26 08:41:27;;;;;;;9.98;5.90;;;;;;;26.18;52.84;99654.47;4991927;28;20062;-79
2023/06/26 08:43:54;;;;;;;8.25;5.75;;;;;;;26.27;52.14;99655.19;4991661;28;20145;-79
2023/06/26 08:46:20;;;;;;;8.70;5.30;;;;;;;26.34;51.93;99652.53;4990949;28;20062;-79
2023/06/26 08:49:00;;;;;;;11.52;5.30;;;;;;;26.36;52.07;99664.00;4990913;28;20066;-79
2023/06/26 08:51:29;;;;;;;7.25;5.07;;;;;;;26.44;51.86;99657.63;4991472;28;20061;-79
2023/06/26 08:54:00;;;;;;;5.90;4.53;;;;;;;26.50;51.81;99671.16;4991811;28;20061;-79
2023/06/26 08:56:37;;;;;;;7.68;5.32;;;;;;;26.55;51.85;99667.91;4973667;28;20065;-79
2023/06/26 08:59:05;;;;;;;9.30;4.63;;;;;;;26.64;50.90;99677.53;4991172;28;20093;-79
2023/06/26 09:01:32;;;;;;;4.40;4.00;;;;;;;26.65;50.16;99684.59;4991213;28;20060;-79
2023/06/26 09:03:58;;;;;;;5.97;3.70;;;;;;;26.64;50.60;99680.22;4991218;28;20116;-79
2023/06/26 09:06:25;;;;;;;6.78;4.18;;;;;;;26.65;50.19;99689.97;4990109;28;20066;-79
2023/06/26 09:08:52;;;;;;;5.20;3.33;;;;;;;26.70;50.19;99691.25;4991204;28;20062;-80
2023/06/26 09:11:18;;;;;;;4.43;3.40;;;;;;;26.73;49.67;99683.63;4990943;28;20058;-79
2023/06/26 09:13:47;;;;;;;8.40;3.63;;;;;;;26.78;49.59;99689.25;4991075;28;20061;-79
2023/06/26 09:16:13;;;;;;;7.03;3.67;;;;;;;26.84;49.86;99684.94;4990921;28;20085;-79
2023/06/26 09:18:42;;;;;;;7.00;3.45;;;;;;;26.91;49.55;99693.91;4990456;28;20058;-79
2023/06/26 09:21:09;;;;;;;5.85;3.83;;;;;;;26.99;49.86;99695.66;4991184;28;20128;-79
2023/06/26 09:23:36;;;;;;;5.90;3.63;;;;;;;27.04;49.65;99697.78;4990822;28;20137;-79
2023/06/26 09:26:04;;;;;;;5.35;3.70;;;;;;;27.11;48.79;99709.47;4973256;28;20512;-79
2023/06/26 09:28:32;;;;;;;5.57;2.90;;;;;;;27.15;47.56;99709.91;4990717;28;20062;-79
2023/06/26 09:31:03;;;;;;;3.47;2.75;;;;;;;27.10;47.02;99706.97;4990397;28;20050;-79
2023/06/26 09:33:38;;;;;;;5.32;2.67;;;;;;;27.04;46.97;99708.56;4990544;28;20058;-80
2023/06/26 09:36:06;;;;;;;3.80;2.40;;;;;;;26.95;46.57;99710.63;4989829;28;20465;-79
2023/06/26 09:38:35;;;;;;;3.53;2.28;;;;;;;26.86;46.68;99717.97;4990477;28;20505;-79
2023/06/26 09:41:02;;;;;;;4.75;2.40;;;;;;;26.77;45.79;99727.25;4972718;28;20054;-79
2023/06/26 09:43:30;;;;;;;4.97;2.35;;;;;;;26.67;46.26;99725.72;4990188;28;20504;-78
2023/06/26 09:45:58;;;;;;;2.90;2.30;;;;;;;26.62;46.11;99728.19;4990229;28;20058;-78
2023/06/26 09:48:37;;;;;;;4.18;2.17;;;;;;;26.58;46.18;99731.44;3209311;23;20236;-85
2023/06/26 09:51:16;;;;;;;4.88;2.40;;;;;;;26.63;46.78;99739.81;4990397;28;20405;-85
2023/06/26 09:53:42;;;;;;;3.08;2.00;;;;;;;26.73;46.33;99744.88;4970987;28;20055;-83
2023/06/26 09:56:18;;;;;;;2.35;1.98;;;;;;;26.78;46.73;99742.41;4970699;28;20066;-82
2023/06/26 09:58:44;;;;;;;4.55;2.25;;;;;;;26.89;47.08;99732.97;4970778;28;20528;-82
2023/06/26 10:01:20;;;;;;;5.00;2.22;;;;;;;26.95;45.58;99743.03;4970701;28;20525;-84
2023/06/26 10:03:57;;;;;;;;;;;;;;;;;;;;;
2023/06/26 10:06:49;;;;;;;2.70;1.83;;;;;;;27.19;45.24;99727.38;4990216;28;20362;-84
2023/06/26 10:09:42;;;;;;;2.38;1.67;;;;;;;27.31;45.74;99727.66;4990402;28;20052;-85
2023/06/26 10:12:33;;;;;;;4.22;2.40;;;;;;;27.49;44.53;99729.00;4982032;28;20061;-85
2023/06/26 10:19:26;;;;;;;4.30;2.28;;;;;;;27.60;44.29;99746.53;4961717;28;20531;-86
2023/06/26 10:22:04;;;;;;;3.55;1.70;;;;;;;27.68;44.55;99739.13;4961772;28;20050;-83
2023/06/26 10:25:34;;;;;;;;;;;;;;;;;;;;;
2023/06/26 10:29:04;;;;;;;3.63;2.00;;;;;;;27.90;44.19;99740.84;4978564;28;20081;-85
2023/06/26 10:32:10;;;;;;;2.78;1.80;;;;;;;28.03;43.35;99738.19;4914316;29;20066;-86
2023/06/26 10:39:58;;;;;;;;;;;;;;;;;;;;;
2023/06/26 10:43:44;;;;;;;3.58;1.95;;;;;;;28.65;43.92;99741.88;4909432;29;20043;-84
2023/06/26 10:48:59;;;;;;;2.43;1.73;;;;;;;29.14;41.36;99753.34;4997687;23;20418;-84
2023/06/26 10:51:27;;;;;;;4.28;2.25;;;;;;;29.27;41.00;99752.50;4987620;28;20322;-83
2023/06/26 10:53:58;;;;;;;2.75;1.88;;;;;;;29.34;39.19;99752.50;4975845;28;20130;-84
2023/06/26 10:56:47;;;;;;;4.60;2.05;;;;;;;29.37;40.18;99757.47;4974099;28;20159;-85
2023/06/26 10:59:22;;;;;;;3.25;2.20;;;;;;;29.49;39.66;99758.50;4973833;28;20110;-84
2023/06/26 11:02:07;;;;;;;3.33;1.83;;;;;;;29.58;39.58;99763.72;4972390;28;20050;-86
2023/06/26 11:04:44;;;;;;;4.68;1.80;;;;;;;29.81;38.54;99762.38;4974525;28;20054;-82
2023/06/26 11:07:22;;;;;;;5.30;2.05;;;;;;;30.06;39.47;99764.34;4977173;28;20091;-83
2023/06/26 11:10:11;;;;;;;2.53;1.90;;;;;;;30.36;40.28;99771.94;4973869;28;20055;-81
2023/06/26 11:12:41;;;;;;;2.40;1.80;;;;;;;30.67;38.63;99760.25;4975141;28;20051;-82
2023/06/26 11:15:09;;;;;;;1.67;1.50;;;;;;;30.89;37.73;99764.47;4982528;28;20121;-83
2023/06/26 11:17:37;;;;;;;2.88;1.80;;;;;;;30.97;36.54;99758.78;4994373;28;20061;-81
2023/06/26 11:20:08;;;;;;;1.80;1.63;;;;;;;30.96;36.93;99770.69;4994469;28;20058;-82
2023/06/26 11:22:37;;;;;;;5.30;1.80;;;;;;;30.99;37.19;99773.00;4994122;28;20058;-80
2023/06/26 11:25:05;;;;;;;6.28;2.13;;;;;;;31.10;36.80;99767.88;4987685;28;20066;-80
2023/06/26 11:27:38;;;;;;;4.07;1.80;;;;;;;31.33;38.39;99770.78;4974819;28;20058;-81
2023/06/26 11:30:06;;;;;;;4.32;1.67;;;;;;;31.64;37.61;99791.81;4974683;28;20483;-81
2023/06/26 11:32:33;;;;;;;3.42;1.73;;;;;;;31.88;36.10;99789.25;4974586;28;20510;-83
2023/06/26 11:35:00;;;;;;;3.25;1.83;;;;;;;31.92;34.10;99793.19;4975578;28;20066;-83
2023/06/26 11:37:26;;;;;;;2.08;1.67;;;;;;;31.80;33.87;99788.47;4993900;28;20062;-81
2023/06/26 11:39:53;;;;;;;2.58;1.88;;;;;;;31.65;34.13;99788.03;4994022;28;20105;-83
2023/06/26 11:42:20;;;;;;;2.90;1.75;;;;;;;31.56;34.11;99785.63;4994045;28;20109;-82
2023/06/26 11:44:47;;;;;;;1.77;1.33;;;;;;;31.61;34.39;99787.66;4993864;28;20058;-79
2023/06/26 11:47:19;;;;;;;3.35;1.80;;;;;;;31.69;34.21;99779.19;4976894;28;20055;-81
2023/06/26 11:49:47;;;;;;;2.63;1.60;;;;;;;31.88;35.32;99787.34;4974267;28;20467;-83
2023/06/26 11:52:15;;;;;;;2.58;1.55;;;;;;;32.09;35.19;99796.09;4974447;28;20428;-82
2023/06/26 11:54:43;;;;;;;2.90;1.50;;;;;;;32.31;35.09;99793.72;4956845;28;20055;-84
2023/06/26 11:57:14;;;;;;;3.15;1.77;;;;;;;32.46;33.15;99801.50;4986593;28;20062;-82
2023/06/26 11:59:41;;;;;;;3.37;1.90;;;;;;;32.53;33.52;99812.28;4993174;28;20050;-83